createdAt,value
2019-02-23T00:00:16.941Z,64.60
2019-02-23T00:02:45.507Z,64.60
2019-02-23T00:05:14.022Z,64.30
2019-02-23T00:07:47.903Z,63.80
2019-02-23T00:10:13.818Z,64.50
2019-02-23T00:12:44.042Z,65.20
2019-02-23T00:15:12.517Z,65.30
2019-02-23T00:21:13.514Z,65.10
2019-02-23T00:23:42.110Z,65.70
2019-02-23T00:26:10.573Z,65.00
2019-02-23T00:28:39.850Z,64.10
2019-02-23T00:31:08.820Z,63.60
2019-02-23T00:36:26.902Z,64.10
2019-02-23T00:38:55.585Z,64.40
2019-02-23T00:54:18.315Z,70.60
2019-02-23T01:55:33.526Z,85.10
2019-02-23T01:58:02.453Z,84.40
2019-02-23T02:04:12.850Z,83.80
2019-02-23T02:10:23.644Z,84.50
2019-02-23T02:12:54.578Z,84.10
2019-02-23T02:15:23.412Z,83.90
2019-02-23T02:17:51.916Z,83.60
2019-02-23T02:20:20.421Z,83.30
2019-02-23T02:22:48.918Z,82.50
2019-02-23T02:25:17.536Z,82.10
2019-02-23T02:31:14.472Z,80.70
2019-02-23T02:34:03.508Z,79.90
2019-02-23T02:40:13.382Z,78.90
2019-02-23T02:46:22.876Z,78.50
2019-02-23T02:48:51.488Z,78.30
2019-02-23T02:51:20.085Z,78.30
2019-02-23T02:57:29.872Z,77.70
2019-02-23T03:06:15.948Z,78.60
2019-02-23T03:12:13.832Z,79.40
2019-02-23T03:14:42.508Z,80.00
2019-02-23T03:17:12.850Z,79.80
2019-02-23T03:23:10.375Z,79.40
2019-02-23T03:29:07.831Z,78.90
2019-02-23T03:31:36.357Z,78.70
2019-02-23T03:37:34.411Z,78.40
2019-02-23T03:43:44.031Z,78.30
2019-02-23T03:46:12.596Z,78.20
2019-02-23T03:48:41.104Z,78.00
2019-02-23T03:54:38.131Z,77.20
2019-02-23T03:57:07.005Z,77.50
2019-02-23T03:59:41.694Z,77.30
2019-02-23T04:02:10.243Z,77.20
2019-02-23T04:04:38.761Z,77.20
2019-02-23T04:07:07.847Z,77.10
2019-02-23T04:09:38.174Z,76.80
2019-02-23T04:12:07.184Z,77.30
2019-02-23T04:14:35.925Z,77.20
2019-02-23T04:17:04.640Z,77.40
2019-02-23T04:19:33.218Z,77.50
2019-02-23T04:25:30.273Z,77.80
2019-02-23T04:27:58.795Z,77.90
2019-02-23T04:30:27.281Z,77.80
2019-02-23T04:32:55.846Z,77.60
2019-02-23T04:35:24.833Z,77.70
2019-02-23T04:37:57.484Z,77.50
2019-02-23T04:40:27.401Z,77.60
2019-02-23T04:46:45.595Z,77.70
2019-02-23T04:49:15.609Z,78.00
2019-02-23T04:55:12.267Z,77.80
2019-02-23T05:01:22.250Z,77.70
2019-02-23T05:13:24.057Z,76.90
2019-02-23T05:15:52.751Z,76.40
2019-02-23T05:22:02.617Z,76.00
2019-02-23T05:28:14.269Z,69.90
2019-02-23T05:30:42.743Z,69.90
2019-02-23T05:35:46.719Z,67.80
2019-02-23T05:38:15.420Z,66.80
2019-02-23T05:40:44.082Z,65.00
2019-02-23T05:43:12.813Z,63.70
2019-02-23T05:45:41.687Z,63.00
2019-02-23T05:48:16.529Z,62.10
2019-02-23T05:54:13.542Z,60.60
2019-02-23T05:56:42.373Z,59.90
2019-02-23T06:02:51.851Z,59.10
2019-02-23T06:09:01.654Z,58.30
2019-02-23T06:11:30.153Z,57.90
2019-02-23T06:13:58.657Z,57.70
2019-02-23T06:20:02.499Z,57.30
2019-02-23T06:22:32.934Z,56.40
2019-02-23T06:34:48.818Z,55.50
2019-02-23T06:40:52.436Z,54.70
2019-02-23T06:43:24.048Z,54.40
2019-02-23T06:49:42.220Z,54.30
2019-02-23T06:55:55.098Z,53.20
2019-02-23T06:58:33.167Z,53.40
2019-02-23T07:01:09.735Z,53.40
2019-02-23T07:03:41.802Z,53.40
2019-02-23T07:06:13.841Z,52.90
2019-02-23T07:08:44.603Z,52.40
2019-02-23T07:11:18.371Z,52.20
2019-02-23T07:17:09.111Z,51.40
2019-02-23T07:19:42.320Z,50.80
2019-02-23T07:25:10.811Z,50.70
2019-02-23T07:31:08.200Z,50.80
2019-02-23T07:37:29.336Z,49.70
2019-02-23T07:39:58.429Z,50.30
2019-02-23T07:42:36.285Z,50.00
2019-02-23T07:45:07.528Z,49.70
2019-02-23T07:47:36.025Z,49.00
2019-02-23T07:57:07.824Z,48.60
2019-02-23T08:03:11.439Z,49.10
2019-02-23T08:05:53.075Z,48.60
2019-02-23T08:11:14.100Z,47.30
2019-02-23T08:13:42.773Z,46.60
2019-02-23T08:16:11.343Z,46.30
2019-02-23T08:18:40.064Z,46.80
2019-02-23T08:21:09.949Z,46.10
2019-02-23T08:23:40.289Z,46.20
2019-02-23T08:26:10.774Z,45.80
2019-02-23T08:28:44.731Z,45.60
2019-02-23T08:43:57.522Z,42.90
2019-02-23T08:50:04.192Z,42.80
2019-02-23T08:52:36.086Z,42.90
2019-02-23T08:55:08.459Z,42.20
2019-02-23T08:57:36.959Z,41.90
2019-02-23T09:00:13.814Z,39.80
2019-02-23T09:02:42.428Z,39.10
2019-02-23T09:05:12.315Z,37.00
2019-02-23T09:17:43.789Z,35.80
2019-02-23T09:20:12.930Z,33.80
2019-02-23T09:33:07.483Z,32.00
2019-02-23T09:35:36.478Z,29.90
2019-02-23T09:41:47.886Z,29.80
2019-02-23T09:44:18.126Z,30.10
2019-02-23T09:47:04.485Z,31.40
2019-02-23T09:59:55.344Z,26.60
2019-02-23T10:02:19.970Z,24.90
2019-02-23T10:04:50.181Z,25.30
2019-02-23T10:07:18.875Z,26.80
2019-02-23T10:09:50.107Z,26.70
2019-02-23T10:12:28.779Z,25.40
2019-02-23T10:15:02.855Z,25.40
2019-02-23T10:17:42.908Z,24.40
2019-02-23T10:23:50.508Z,24.00
2019-02-23T10:26:19.195Z,23.50
2019-02-23T10:32:21.485Z,24.30
2019-02-23T10:45:22.295Z,27.80
2019-02-23T10:47:52.929Z,27.00
2019-02-23T10:54:04.641Z,26.30
2019-02-23T10:56:36.513Z,27.60
2019-02-23T10:59:05.712Z,28.50
2019-02-23T11:01:36.927Z,28.10
2019-02-23T11:04:07.177Z,27.80
2019-02-23T11:06:38.442Z,27.60
2019-02-23T11:09:08.599Z,27.90
2019-02-23T11:11:37.325Z,28.50
2019-02-23T11:14:08.466Z,29.00
2019-02-23T11:16:37.357Z,28.50
2019-02-23T11:19:09.934Z,29.00
2019-02-23T11:57:27.199Z,24.10
2019-02-23T12:08:06.994Z,25.50
2019-02-23T12:10:37.115Z,24.60
2019-02-23T12:13:06.255Z,24.60
2019-02-23T12:15:37.763Z,23.50
2019-02-23T12:28:29.044Z,24.10
2019-02-23T12:30:58.038Z,23.50
2019-02-23T12:55:58.820Z,24.30
2019-02-23T13:01:16.499Z,24.50
2019-02-23T13:22:46.099Z,24.60
2019-02-23T13:59:03.257Z,20.80
2019-02-23T15:03:26.956Z,19.50
2019-02-23T15:06:27.498Z,18.70
2019-02-23T15:09:09.348Z,18.20
2019-02-23T15:15:40.963Z,19.10
2019-02-23T15:18:46.216Z,19.60
2019-02-23T15:21:18.162Z,18.90
2019-02-23T15:24:12.465Z,17.80
2019-02-23T15:27:20.249Z,17.80
2019-02-23T15:33:31.324Z,18.50
2019-02-23T15:36:15.199Z,18.60
2019-02-23T15:39:03.750Z,18.90
2019-02-23T15:41:50.670Z,18.80
2019-02-23T15:44:34.533Z,19.00
2019-02-23T15:47:18.473Z,19.20
2019-02-23T15:49:47.351Z,19.70
2019-02-23T15:52:16.016Z,19.90
2019-02-23T15:54:45.018Z,20.10
2019-02-23T15:57:48.409Z,21.00
2019-02-23T16:00:19.011Z,21.80
2019-02-23T16:02:47.802Z,22.70
2019-02-23T16:05:18.743Z,23.40
2019-02-23T16:07:47.518Z,24.50
2019-02-23T16:10:18.979Z,25.10
2019-02-23T16:12:52.097Z,25.30
2019-02-23T16:15:20.855Z,25.60
2019-02-23T16:17:50.083Z,26.00
2019-02-23T16:20:33.587Z,26.40
2019-02-23T16:23:06.808Z,26.80
2019-02-23T16:25:41.202Z,26.70
2019-02-23T16:28:31.824Z,27.10
2019-02-23T16:31:20.609Z,27.30
2019-02-23T16:33:59.482Z,27.30
2019-02-23T16:36:53.177Z,27.30
2019-02-23T16:39:21.861Z,27.20
2019-02-23T16:41:51.034Z,27.60
2019-02-23T16:44:20.234Z,27.70
2019-02-23T16:46:58.090Z,28.00
2019-02-23T16:50:03.551Z,28.20
2019-02-23T16:52:41.484Z,28.90
2019-02-23T16:58:31.593Z,28.90
2019-02-23T17:01:20.978Z,29.20
2019-02-23T17:03:58.358Z,29.30
2019-02-23T17:06:41.581Z,29.60
2019-02-23T17:09:26.759Z,29.90
2019-02-23T17:12:06.472Z,30.00
2019-02-23T17:14:51.877Z,30.30
2019-02-23T17:17:27.841Z,30.30
2019-02-23T17:20:02.561Z,30.50
2019-02-23T17:22:34.689Z,31.10
2019-02-23T17:25:23.179Z,31.00
2019-02-23T17:28:00.158Z,31.30
2019-02-23T17:30:44.101Z,31.40
2019-02-23T17:36:27.776Z,31.30
2019-02-23T17:38:59.825Z,31.40
2019-02-23T17:41:39.666Z,31.40
2019-02-23T17:44:14.710Z,31.40
2019-02-23T17:46:54.634Z,31.70
2019-02-23T17:49:50.140Z,32.10
2019-02-23T17:52:32.656Z,32.70
2019-02-23T17:55:10.998Z,33.00
2019-02-23T17:57:46.985Z,32.40
2019-02-23T18:00:26.171Z,32.10
2019-02-23T18:03:00.580Z,32.10
2019-02-23T18:05:29.783Z,32.00
2019-02-23T18:08:06.589Z,32.10
2019-02-23T18:10:40.256Z,32.30
2019-02-23T18:13:11.938Z,32.90
2019-02-23T18:15:43.786Z,33.10
2019-02-23T18:18:14.213Z,34.00
2019-02-23T18:20:43.190Z,34.20
2019-02-23T18:23:18.942Z,34.70
2019-02-23T18:25:47.849Z,34.90
2019-02-23T18:28:25.346Z,34.60
2019-02-23T18:30:53.581Z,35.00
2019-02-23T18:33:35.410Z,34.90
2019-02-23T18:36:22.942Z,35.10
2019-02-23T18:38:59.000Z,35.70
2019-02-23T18:41:48.061Z,36.20
2019-02-23T18:47:36.316Z,37.00
2019-02-23T18:50:15.661Z,37.30
2019-02-23T18:53:04.832Z,37.90
2019-02-23T18:55:41.112Z,38.20
2019-02-23T18:58:11.311Z,38.40
2019-02-23T19:00:46.758Z,38.40
2019-02-23T19:03:31.206Z,38.40
2019-02-23T19:06:12.513Z,38.60
2019-02-23T19:08:41.895Z,38.80
2019-02-23T19:11:12.530Z,39.70
2019-02-23T19:16:47.864Z,40.20
2019-02-23T19:19:27.064Z,40.70
2019-02-23T19:22:06.253Z,41.20
2019-02-23T19:24:39.669Z,41.30
2019-02-23T19:27:12.879Z,41.20
2019-02-23T19:29:41.711Z,41.50
2019-02-23T19:32:13.087Z,41.70
2019-02-23T19:34:43.392Z,41.30
2019-02-23T19:37:14.473Z,41.90
2019-02-23T19:39:42.509Z,41.40
2019-02-23T19:42:11.807Z,41.70
2019-02-23T19:44:54.859Z,41.90
2019-02-23T19:47:15.036Z,42.80
2019-02-23T19:49:46.579Z,42.50
2019-02-23T19:52:16.829Z,42.70
2019-02-23T19:54:45.490Z,42.70
2019-02-23T19:57:17.131Z,42.60
2019-02-23T19:59:45.780Z,42.80
2019-02-23T20:02:14.284Z,43.30
2019-02-23T20:04:43.017Z,43.00
2019-02-23T20:07:11.577Z,43.10
2019-02-23T20:09:41.389Z,43.00
2019-02-23T20:12:09.946Z,43.00
2019-02-23T20:14:38.666Z,43.30
2019-02-23T20:17:07.379Z,43.50
2019-02-23T20:19:35.855Z,43.60
2019-02-23T20:22:04.534Z,43.70
2019-02-23T20:24:36.046Z,43.30
2019-02-23T20:27:06.890Z,43.40
2019-02-23T20:29:37.732Z,43.50
2019-02-23T20:32:06.225Z,43.10
2019-02-23T20:34:34.758Z,43.00
2019-02-23T20:37:06.098Z,43.10
2019-02-23T20:39:46.940Z,43.10
2019-02-23T20:42:18.856Z,43.60
2019-02-23T20:44:48.791Z,43.80
2019-02-23T20:47:19.120Z,43.60
2019-02-23T20:49:50.440Z,43.80
2019-02-23T20:52:18.953Z,43.50
2019-02-23T20:54:47.513Z,43.00
2019-02-23T20:57:16.042Z,42.40
2019-02-23T20:59:44.537Z,42.70
2019-02-23T21:02:20.361Z,42.80
2019-02-23T21:04:49.202Z,42.40
2019-02-23T21:07:17.676Z,42.20
2019-02-23T21:09:46.259Z,42.00
2019-02-23T21:12:14.845Z,41.60
2019-02-23T21:14:43.335Z,41.70
2019-02-23T21:17:11.834Z,42.00
2019-02-23T21:19:42.816Z,42.00
2019-02-23T21:22:11.466Z,42.00
2019-02-23T21:24:39.941Z,42.40
2019-02-23T21:27:12.973Z,42.90
2019-02-23T21:29:38.593Z,42.70
2019-02-23T21:32:07.292Z,42.70
2019-02-23T21:34:35.830Z,42.40
2019-02-23T21:37:04.327Z,42.40
2019-02-23T21:39:35.682Z,42.00
2019-02-23T21:42:06.089Z,41.40
2019-02-23T21:44:34.710Z,41.10
2019-02-23T21:47:03.363Z,41.00
2019-02-23T21:49:32.016Z,41.00
2019-02-23T21:52:00.530Z,41.00
2019-02-23T21:54:29.218Z,41.10
2019-02-23T21:57:00.584Z,41.30
2019-02-23T21:59:32.097Z,41.50
2019-02-23T22:02:02.291Z,41.70
2019-02-23T22:04:30.808Z,41.50
2019-02-23T22:09:45.236Z,41.60
2019-02-23T22:12:15.084Z,41.80
2019-02-23T22:14:43.784Z,42.10
2019-02-23T22:17:12.190Z,42.30
2019-02-23T22:19:40.625Z,42.40
2019-02-23T22:22:09.318Z,42.60
2019-02-23T22:24:37.838Z,43.40
2019-02-23T22:27:06.433Z,42.90
2019-02-23T22:29:34.952Z,43.10
2019-02-23T22:32:03.380Z,43.50
2019-02-23T22:34:31.881Z,43.60
2019-02-23T22:37:02.593Z,44.10
2019-02-23T22:39:31.063Z,43.30
2019-02-23T22:41:59.516Z,42.60
2019-02-23T22:44:28.012Z,42.20
2019-02-23T22:46:56.843Z,42.20
2019-02-23T22:49:25.439Z,42.30
2019-02-23T22:51:53.836Z,42.20
2019-02-23T22:54:22.434Z,43.00
2019-02-23T22:56:50.851Z,42.70
2019-02-23T22:59:19.294Z,42.60
2019-02-23T23:01:47.870Z,42.60
2019-02-23T23:04:16.397Z,42.60
2019-02-23T23:06:45.300Z,43.10
2019-02-23T23:09:15.374Z,43.90
2019-02-23T23:11:43.816Z,42.70
2019-02-23T23:14:12.419Z,42.50
2019-02-23T23:16:40.856Z,41.90
2019-02-23T23:19:09.413Z,41.40
2019-02-23T23:21:37.923Z,41.30
2019-02-23T23:24:06.506Z,41.00
2019-02-23T23:26:35.209Z,40.90
2019-02-23T23:29:03.829Z,41.10
2019-02-23T23:31:32.375Z,41.60
2019-02-23T23:34:00.893Z,41.50
2019-02-23T23:36:29.510Z,41.70
2019-02-23T23:38:58.057Z,41.80
2019-02-23T23:41:26.728Z,41.90
2019-02-23T23:43:55.192Z,42.20
2019-02-23T23:46:23.754Z,42.10
2019-02-23T23:48:52.325Z,42.20
2019-02-23T23:51:20.825Z,42.10
2019-02-23T23:53:49.424Z,42.00
2019-02-23T23:56:17.909Z,42.00
2019-02-23T23:58:46.547Z,42.20
